sensor_id;sensor_type;location;lat;lon;timestamp;pressure;altitude;pressure_sealevel;temperature;humidity
65013;BME280;51715;39.432;-77.518;2023-03-26T00:01:30;98467.69;;;15.29;43.83
65013;BME280;51715;39.432;-77.518;2023-03-26T00:03:59;98473.16;;;15.38;43.75
65013;BME280;51715;39.432;-77.518;2023-03-26T00:06:29;98467.67;;;15.37;44.46
65013;BME280;51715;39.432;-77.518;2023-03-26T00:08:58;98484.98;;;15.05;44.33
65013;BME280;51715;39.432;-77.518;2023-03-26T00:11:29;98478.21;;;15.12;44.34
65013;BME280;51715;39.432;-77.518;2023-03-26T00:13:58;98485.17;;;15.12;44.32
65013;BME280;51715;39.432;-77.518;2023-03-26T00:16:28;98487.47;;;15.18;44.26
65013;BME280;51715;39.432;-77.518;2023-03-26T00:18:59;98485.40;;;15.21;44.26
65013;BME280;51715;39.432;-77.518;2023-03-26T00:21:28;98486.01;;;15.55;44.12
65013;BME280;51715;39.432;-77.518;2023-03-26T00:24:00;98497.24;;;15.56;44.17
65013;BME280;51715;39.432;-77.518;2023-03-26T00:26:29;98506.91;;;15.23;44.19
65013;BME280;51715;39.432;-77.518;2023-03-26T00:28:58;98502.36;;;15.27;44.14
65013;BME280;51715;39.432;-77.518;2023-03-26T00:31:26;98530.77;;;15.39;44.13
65013;BME280;51715;39.432;-77.518;2023-03-26T00:33:55;98546.92;;;15.01;44.84
65013;BME280;51715;39.432;-77.518;2023-03-26T00:36:24;98549.71;;;14.67;44.96
65013;BME280;51715;39.432;-77.518;2023-03-26T00:38:53;98538.45;;;14.78;44.78
65013;BME280;51715;39.432;-77.518;2023-03-26T00:41:24;98540.97;;;15.29;44.52
65013;BME280;51715;39.432;-77.518;2023-03-26T00:43:54;98542.19;;;15.32;44.51
65013;BME280;51715;39.432;-77.518;2023-03-26T00:46:24;98554.94;;;13.92;47.49
65013;BME280;51715;39.432;-77.518;2023-03-26T00:48:53;98556.29;;;13.91;47.94
65013;BME280;51715;39.432;-77.518;2023-03-26T00:51:22;98549.80;;;14.15;46.84
65013;BME280;51715;39.432;-77.518;2023-03-26T00:53:51;98545.78;;;14.69;45.67
65013;BME280;51715;39.432;-77.518;2023-03-26T00:56:20;98564.38;;;14.26;46.11
65013;BME280;51715;39.432;-77.518;2023-03-26T00:58:49;98560.23;;;14.77;45.27
65013;BME280;51715;39.432;-77.518;2023-03-26T01:01:20;98560.11;;;14.91;44.91
65013;BME280;51715;39.432;-77.518;2023-03-26T01:03:49;98566.10;;;14.98;44.89
65013;BME280;51715;39.432;-77.518;2023-03-26T01:06:23;98552.21;;;14.84;44.65
65013;BME280;51715;39.432;-77.518;2023-03-26T01:08:52;98561.06;;;14.92;44.39
65013;BME280;51715;39.432;-77.518;2023-03-26T01:11:24;98571.69;;;14.93;44.34
65013;BME280;51715;39.432;-77.518;2023-03-26T01:13:56;98578.62;;;14.91;44.24
65013;BME280;51715;39.432;-77.518;2023-03-26T01:16:30;98575.90;;;14.78;44.14
65013;BME280;51715;39.432;-77.518;2023-03-26T01:19:01;98595.85;;;14.90;44.75
65013;BME280;51715;39.432;-77.518;2023-03-26T01:21:29;98594.02;;;14.38;45.93
65013;BME280;51715;39.432;-77.518;2023-03-26T01:24:00;98594.46;;;14.76;45.43
65013;BME280;51715;39.432;-77.518;2023-03-26T01:26:43;98598.93;;;14.74;45.05
65013;BME280;51715;39.432;-77.518;2023-03-26T01:29:20;98597.60;;;14.57;45.80
65013;BME280;51715;39.432;-77.518;2023-03-26T01:31:57;98603.21;;;13.82;46.33
65013;BME280;51715;39.432;-77.518;2023-03-26T01:34:39;98593.25;;;14.41;45.33
65013;BME280;51715;39.432;-77.518;2023-03-26T01:37:16;98598.93;;;14.70;45.27
65013;BME280;51715;39.432;-77.518;2023-03-26T01:39:52;98599.77;;;14.58;45.05
65013;BME280;51715;39.432;-77.518;2023-03-26T01:42:30;98607.59;;;14.92;44.93
65013;BME280;51715;39.432;-77.518;2023-03-26T01:45:08;98615.75;;;14.58;45.31
65013;BME280;51715;39.432;-77.518;2023-03-26T01:47:37;98604.32;;;14.21;45.15
65013;BME280;51715;39.432;-77.518;2023-03-26T01:50:08;98606.50;;;14.80;45.08
65013;BME280;51715;39.432;-77.518;2023-03-26T01:52:36;98608.45;;;14.77;44.81
65013;BME280;51715;39.432;-77.518;2023-03-26T01:55:06;98610.21;;;14.38;45.46
65013;BME280;51715;39.432;-77.518;2023-03-26T01:57:40;98614.26;;;14.55;45.47
65013;BME280;51715;39.432;-77.518;2023-03-26T02:00:23;98612.23;;;14.46;45.13
65013;BME280;51715;39.432;-77.518;2023-03-26T02:03:06;98623.25;;;14.85;44.87
65013;BME280;51715;39.432;-77.518;2023-03-26T02:05:44;98627.40;;;14.94;44.84
65013;BME280;51715;39.432;-77.518;2023-03-26T02:08:22;98631.64;;;14.45;44.90
65013;BME280;51715;39.432;-77.518;2023-03-26T02:10:54;98631.67;;;14.63;45.17
65013;BME280;51715;39.432;-77.518;2023-03-26T02:13:24;98636.24;;;14.93;45.28
65013;BME280;51715;39.432;-77.518;2023-03-26T02:15:55;98637.91;;;15.04;45.25
65013;BME280;51715;39.432;-77.518;2023-03-26T02:18:26;98634.68;;;14.57;45.22
65013;BME280;51715;39.432;-77.518;2023-03-26T02:20:54;98635.60;;;15.15;45.13
65013;BME280;51715;39.432;-77.518;2023-03-26T02:23:23;98630.81;;;15.19;45.15
65013;BME280;51715;39.432;-77.518;2023-03-26T02:25:52;98631.16;;;14.74;45.05
65013;BME280;51715;39.432;-77.518;2023-03-26T02:28:20;98637.69;;;15.06;45.06
65013;BME280;51715;39.432;-77.518;2023-03-26T02:30:48;98633.45;;;15.31;45.00
65013;BME280;51715;39.432;-77.518;2023-03-26T02:33:16;98641.10;;;14.71;45.39
65013;BME280;51715;39.432;-77.518;2023-03-26T02:35:45;98643.89;;;14.88;45.67
65013;BME280;51715;39.432;-77.518;2023-03-26T02:38:14;98641.20;;;15.06;45.43
65013;BME280;51715;39.432;-77.518;2023-03-26T02:40:41;98637.90;;;15.09;45.35
65013;BME280;51715;39.432;-77.518;2023-03-26T02:43:10;98644.38;;;15.34;45.31
65013;BME280;51715;39.432;-77.518;2023-03-26T02:45:39;98650.12;;;14.68;46.72
65013;BME280;51715;39.432;-77.518;2023-03-26T02:48:07;98654.82;;;14.49;46.83
65013;BME280;51715;39.432;-77.518;2023-03-26T02:50:36;98656.35;;;14.32;47.63
65013;BME280;51715;39.432;-77.518;2023-03-26T02:53:04;98651.75;;;14.55;46.94
65013;BME280;51715;39.432;-77.518;2023-03-26T02:55:33;98651.30;;;14.67;46.66
65013;BME280;51715;39.432;-77.518;2023-03-26T02:58:02;98659.85;;;14.68;46.09
65013;BME280;51715;39.432;-77.518;2023-03-26T03:00:30;98665.82;;;13.55;48.61
65013;BME280;51715;39.432;-77.518;2023-03-26T03:02:59;98679.63;;;13.92;47.95
65013;BME280;51715;39.432;-77.518;2023-03-26T03:05:27;98687.30;;;13.74;46.93
65013;BME280;51715;39.432;-77.518;2023-03-26T03:07:55;98673.13;;;13.22;49.35
65013;BME280;51715;39.432;-77.518;2023-03-26T03:10:24;98681.89;;;13.77;47.96
65013;BME280;51715;39.432;-77.518;2023-03-26T03:12:53;98681.35;;;13.77;47.64
65013;BME280;51715;39.432;-77.518;2023-03-26T03:15:22;98681.07;;;14.15;47.39
65013;BME280;51715;39.432;-77.518;2023-03-26T03:17:51;98690.19;;;14.13;46.91
65013;BME280;51715;39.432;-77.518;2023-03-26T03:20:19;98703.58;;;14.29;46.62
65013;BME280;51715;39.432;-77.518;2023-03-26T03:22:48;98713.37;;;14.31;46.31
65013;BME280;51715;39.432;-77.518;2023-03-26T03:25:16;98715.17;;;14.19;46.05
65013;BME280;51715;39.432;-77.518;2023-03-26T03:27:45;98711.21;;;14.04;45.94
65013;BME280;51715;39.432;-77.518;2023-03-26T03:30:13;98716.64;;;14.18;45.82
65013;BME280;51715;39.432;-77.518;2023-03-26T03:32:42;98717.46;;;14.21;45.63
65013;BME280;51715;39.432;-77.518;2023-03-26T03:35:11;98731.06;;;14.29;45.34
65013;BME280;51715;39.432;-77.518;2023-03-26T03:37:39;98735.83;;;14.15;45.26
65013;BME280;51715;39.432;-77.518;2023-03-26T03:40:09;98734.89;;;14.58;45.20
65013;BME280;51715;39.432;-77.518;2023-03-26T03:42:37;98736.66;;;14.06;45.17
65013;BME280;51715;39.432;-77.518;2023-03-26T03:45:07;98744.88;;;13.98;44.89
65013;BME280;51715;39.432;-77.518;2023-03-26T03:47:36;98746.61;;;13.82;44.88
65013;BME280;51715;39.432;-77.518;2023-03-26T03:50:05;98747.36;;;14.11;45.02
65013;BME280;51715;39.432;-77.518;2023-03-26T03:52:34;98745.67;;;13.72;44.86
65013;BME280;51715;39.432;-77.518;2023-03-26T03:55:02;98747.72;;;13.75;44.86
65013;BME280;51715;39.432;-77.518;2023-03-26T03:57:30;98756.35;;;13.71;44.57
65013;BME280;51715;39.432;-77.518;2023-03-26T03:59:58;98757.10;;;13.44;44.60
65013;BME280;51715;39.432;-77.518;2023-03-26T04:04:07;98760.84;;;13.34;43.35
65013;BME280;51715;39.432;-77.518;2023-03-26T04:06:36;98767.43;;;13.09;43.61
65013;BME280;51715;39.432;-77.518;2023-03-26T04:09:05;98766.98;;;13.26;43.49
65013;BME280;51715;39.432;-77.518;2023-03-26T04:11:32;98767.31;;;13.15;43.40
65013;BME280;51715;39.432;-77.518;2023-03-26T04:14:01;98770.31;;;12.88;43.76
65013;BME280;51715;39.432;-77.518;2023-03-26T04:16:30;98770.64;;;12.48;44.15
65013;BME280;51715;39.432;-77.518;2023-03-26T04:18:59;98778.25;;;12.80;44.26
65013;BME280;51715;39.432;-77.518;2023-03-26T04:21:27;98785.14;;;12.12;44.20
65013;BME280;51715;39.432;-77.518;2023-03-26T04:23:55;98789.58;;;12.11;45.12
65013;BME280;51715;39.432;-77.518;2023-03-26T04:26:24;98792.74;;;12.04;45.48
65013;BME280;51715;39.432;-77.518;2023-03-26T04:28:55;98790.87;;;12.04;45.51
65013;BME280;51715;39.432;-77.518;2023-03-26T04:31:25;98795.60;;;12.02;45.45
65013;BME280;51715;39.432;-77.518;2023-03-26T04:33:54;98794.41;;;12.18;45.40
65013;BME280;51715;39.432;-77.518;2023-03-26T04:36:27;98804.17;;;11.53;46.18
65013;BME280;51715;39.432;-77.518;2023-03-26T04:38:56;98800.33;;;11.83;45.55
65013;BME280;51715;39.432;-77.518;2023-03-26T04:41:27;98806.97;;;11.93;45.41
65013;BME280;51715;39.432;-77.518;2023-03-26T04:43:56;98807.10;;;11.98;45.29
65013;BME280;51715;39.432;-77.518;2023-03-26T04:46:24;98812.27;;;11.50;45.86
65013;BME280;51715;39.432;-77.518;2023-03-26T04:48:53;98817.04;;;11.62;45.49
65013;BME280;51715;39.432;-77.518;2023-03-26T04:51:25;98819.00;;;11.59;45.62
65013;BME280;51715;39.432;-77.518;2023-03-26T04:53:56;98816.77;;;11.44;46.15
65013;BME280;51715;39.432;-77.518;2023-03-26T04:56:32;98826.53;;;11.64;45.85
65013;BME280;51715;39.432;-77.518;2023-03-26T04:59:02;98834.57;;;11.57;45.88
65013;BME280;51715;39.432;-77.518;2023-03-26T05:01:30;98839.43;;;11.41;46.19
65013;BME280;51715;39.432;-77.518;2023-03-26T05:03:59;98841.10;;;11.63;46.34
65013;BME280;51715;39.432;-77.518;2023-03-26T05:06:28;98848.47;;;11.37;46.82
65013;BME280;51715;39.432;-77.518;2023-03-26T05:08:57;98856.73;;;11.20;46.80
65013;BME280;51715;39.432;-77.518;2023-03-26T05:11:26;98850.14;;;11.72;45.91
65013;BME280;51715;39.432;-77.518;2023-03-26T05:13:54;98853.86;;;11.50;44.64
65013;BME280;51715;39.432;-77.518;2023-03-26T05:16:23;98854.07;;;11.76;43.30
65013;BME280;51715;39.432;-77.518;2023-03-26T05:18:51;98855.09;;;12.06;42.99
65013;BME280;51715;39.432;-77.518;2023-03-26T05:21:20;98857.59;;;11.88;41.41
65013;BME280;51715;39.432;-77.518;2023-03-26T05:23:49;98856.58;;;11.75;39.99
65013;BME280;51715;39.432;-77.518;2023-03-26T05:26:17;98866.23;;;11.85;39.38
65013;BME280;51715;39.432;-77.518;2023-03-26T05:28:45;98865.96;;;12.32;38.43
65013;BME280;51715;39.432;-77.518;2023-03-26T05:31:13;98875.65;;;12.88;37.34
65013;BME280;51715;39.432;-77.518;2023-03-26T05:33:45;98880.54;;;13.18;37.46
65013;BME280;51715;39.432;-77.518;2023-03-26T05:36:14;98885.33;;;11.86;37.36
65013;BME280;51715;39.432;-77.518;2023-03-26T05:38:42;98884.83;;;12.90;36.64
65013;BME280;51715;39.432;-77.518;2023-03-26T05:41:11;98892.32;;;12.72;35.63
65013;BME280;51715;39.432;-77.518;2023-03-26T05:43:39;98891.84;;;13.44;35.23
65013;BME280;51715;39.432;-77.518;2023-03-26T05:46:08;98898.81;;;13.28;34.64
65013;BME280;51715;39.432;-77.518;2023-03-26T05:48:36;98893.14;;;13.41;34.50
65013;BME280;51715;39.432;-77.518;2023-03-26T05:51:05;98908.39;;;13.96;33.92
65013;BME280;51715;39.432;-77.518;2023-03-26T05:53:33;98909.86;;;14.37;33.63
65013;BME280;51715;39.432;-77.518;2023-03-26T05:56:02;98917.19;;;14.26;32.66
65013;BME280;51715;39.432;-77.518;2023-03-26T05:58:31;98935.48;;;14.18;33.29
65013;BME280;51715;39.432;-77.518;2023-03-26T06:01:02;98928.77;;;14.20;33.97
65013;BME280;51715;39.432;-77.518;2023-03-26T06:03:31;98935.15;;;14.76;33.99
65013;BME280;51715;39.432;-77.518;2023-03-26T06:06:00;98938.72;;;14.59;34.05
65013;BME280;51715;39.432;-77.518;2023-03-26T06:08:28;98942.94;;;13.83;33.34
65013;BME280;51715;39.432;-77.518;2023-03-26T06:11:00;98952.27;;;13.60;33.68
65013;BME280;51715;39.432;-77.518;2023-03-26T06:13:31;98949.64;;;13.57;33.22
65013;BME280;51715;39.432;-77.518;2023-03-26T06:15:59;98959.20;;;13.56;32.96
65013;BME280;51715;39.432;-77.518;2023-03-26T06:18:27;98956.27;;;12.99;32.30
65013;BME280;51715;39.432;-77.518;2023-03-26T06:20:55;98963.07;;;13.38;32.46
65013;BME280;51715;39.432;-77.518;2023-03-26T06:23:23;98969.31;;;13.64;31.87
65013;BME280;51715;39.432;-77.518;2023-03-26T06:25:51;98979.30;;;13.69;31.88
65013;BME280;51715;39.432;-77.518;2023-03-26T06:28:19;98973.64;;;13.88;31.39
65013;BME280;51715;39.432;-77.518;2023-03-26T06:30:48;98977.85;;;13.95;31.27
65013;BME280;51715;39.432;-77.518;2023-03-26T06:33:16;98986.90;;;12.41;32.66
65013;BME280;51715;39.432;-77.518;2023-03-26T06:35:45;98997.64;;;12.79;32.20
65013;BME280;51715;39.432;-77.518;2023-03-26T06:38:13;98994.37;;;12.09;32.06
65013;BME280;51715;39.432;-77.518;2023-03-26T06:40:41;98997.58;;;12.70;30.79
65013;BME280;51715;39.432;-77.518;2023-03-26T06:43:08;98998.11;;;13.10;30.41
65013;BME280;51715;39.432;-77.518;2023-03-26T06:45:36;98999.15;;;13.03;32.00
65013;BME280;51715;39.432;-77.518;2023-03-26T06:48:05;99004.00;;;13.25;31.36
65013;BME280;51715;39.432;-77.518;2023-03-26T06:50:34;99011.68;;;11.80;31.62
65013;BME280;51715;39.432;-77.518;2023-03-26T06:53:02;99013.84;;;11.85;32.40
65013;BME280;51715;39.432;-77.518;2023-03-26T06:55:30;99008.98;;;12.42;31.52
65013;BME280;51715;39.432;-77.518;2023-03-26T06:57:59;99011.86;;;11.91;31.98
65013;BME280;51715;39.432;-77.518;2023-03-26T07:00:27;99017.08;;;12.32;31.71
65013;BME280;51715;39.432;-77.518;2023-03-26T07:02:55;99015.32;;;12.70;31.37
65013;BME280;51715;39.432;-77.518;2023-03-26T07:05:24;99024.40;;;12.31;31.56
65013;BME280;51715;39.432;-77.518;2023-03-26T07:07:51;99018.89;;;12.66;30.90
65013;BME280;51715;39.432;-77.518;2023-03-26T07:10:20;99027.54;;;12.50;32.11
65013;BME280;51715;39.432;-77.518;2023-03-26T07:12:48;99027.35;;;12.70;31.83
65013;BME280;51715;39.432;-77.518;2023-03-26T07:15:16;99027.95;;;12.93;31.40
65013;BME280;51715;39.432;-77.518;2023-03-26T07:17:44;99025.76;;;12.77;31.79
65013;BME280;51715;39.432;-77.518;2023-03-26T07:20:14;99028.08;;;13.14;30.83
65013;BME280;51715;39.432;-77.518;2023-03-26T07:22:43;99031.48;;;13.12;31.17
65013;BME280;51715;39.432;-77.518;2023-03-26T07:25:13;99032.93;;;13.58;30.31
65013;BME280;51715;39.432;-77.518;2023-03-26T07:27:50;99042.83;;;14.16;29.81
65013;BME280;51715;39.432;-77.518;2023-03-26T07:30:25;99040.42;;;14.27;29.92
65013;BME280;51715;39.432;-77.518;2023-03-26T07:32:59;99039.67;;;14.15;29.97
65013;BME280;51715;39.432;-77.518;2023-03-26T07:35:31;99047.87;;;14.21;29.76
65013;BME280;51715;39.432;-77.518;2023-03-26T07:38:20;99051.79;;;14.12;29.83
65013;BME280;51715;39.432;-77.518;2023-03-26T07:40:57;99056.95;;;13.52;30.79
65013;BME280;51715;39.432;-77.518;2023-03-26T07:43:41;99058.90;;;12.68;31.00
65013;BME280;51715;39.432;-77.518;2023-03-26T07:46:14;99053.31;;;12.59;30.88
65013;BME280;51715;39.432;-77.518;2023-03-26T07:48:43;99063.36;;;12.73;30.92
65013;BME280;51715;39.432;-77.518;2023-03-26T07:51:13;99069.08;;;12.02;31.44
65013;BME280;51715;39.432;-77.518;2023-03-26T07:53:41;99073.70;;;11.76;31.45
65013;BME280;51715;39.432;-77.518;2023-03-26T07:56:14;99078.00;;;11.66;31.53
65013;BME280;51715;39.432;-77.518;2023-03-26T07:58:53;99070.88;;;12.55;30.81
65013;BME280;51715;39.432;-77.518;2023-03-26T08:01:31;99084.85;;;12.49;30.89
65013;BME280;51715;39.432;-77.518;2023-03-26T08:04:23;99083.99;;;12.34;29.73
65013;BME280;51715;39.432;-77.518;2023-03-26T08:06:57;99095.16;;;12.41;29.55
65013;BME280;51715;39.432;-77.518;2023-03-26T08:09:31;99095.70;;;12.17;29.76
65013;BME280;51715;39.432;-77.518;2023-03-26T08:12:08;99094.73;;;12.33;29.16
65013;BME280;51715;39.432;-77.518;2023-03-26T08:14:48;99102.09;;;12.27;29.93
65013;BME280;51715;39.432;-77.518;2023-03-26T08:17:22;99107.96;;;11.93;29.61
65013;BME280;51715;39.432;-77.518;2023-03-26T08:20:00;99118.58;;;12.29;29.29
65013;BME280;51715;39.432;-77.518;2023-03-26T08:22:33;99114.09;;;12.87;29.53
65013;BME280;51715;39.432;-77.518;2023-03-26T08:25:15;99126.61;;;12.58;28.60
65013;BME280;51715;39.432;-77.518;2023-03-26T08:27:54;99130.82;;;13.05;28.71
65013;BME280;51715;39.432;-77.518;2023-03-26T08:30:28;99135.02;;;12.41;29.02
65013;BME280;51715;39.432;-77.518;2023-03-26T08:32:58;99141.13;;;11.86;29.68
65013;BME280;51715;39.432;-77.518;2023-03-26T08:35:27;99139.59;;;12.51;28.61
65013;BME280;51715;39.432;-77.518;2023-03-26T08:37:55;99143.69;;;12.68;28.98
65013;BME280;51715;39.432;-77.518;2023-03-26T08:40:45;99153.82;;;12.15;28.64
65013;BME280;51715;39.432;-77.518;2023-03-26T08:43:36;99161.32;;;12.34;29.56
65013;BME280;51715;39.432;-77.518;2023-03-26T08:46:24;99163.47;;;12.63;28.99
65013;BME280;51715;39.432;-77.518;2023-03-26T08:49:02;99169.45;;;12.16;28.73
65013;BME280;51715;39.432;-77.518;2023-03-26T08:53:02;99172.30;;;12.58;29.10
65013;BME280;51715;39.432;-77.518;2023-03-26T08:55:44;99172.30;;;11.85;28.96
65013;BME280;51715;39.432;-77.518;2023-03-26T08:58:40;99179.84;;;11.51;30.23
65013;BME280;51715;39.432;-77.518;2023-03-26T09:02:01;99188.25;;;11.15;29.86
65013;BME280;51715;39.432;-77.518;2023-03-26T09:05:17;99199.04;;;11.60;29.49
65013;BME280;51715;39.432;-77.518;2023-03-26T09:08:41;99205.26;;;10.99;30.14
65013;BME280;51715;39.432;-77.518;2023-03-26T09:11:31;99216.42;;;11.51;29.31
65013;BME280;51715;39.432;-77.518;2023-03-26T09:16:42;99222.31;;;11.17;30.73
65013;BME280;51715;39.432;-77.518;2023-03-26T09:21:40;99234.52;;;11.62;30.23
65013;BME280;51715;39.432;-77.518;2023-03-26T09:24:36;99241.68;;;11.28;30.25
65013;BME280;51715;39.432;-77.518;2023-03-26T09:27:30;99245.20;;;11.53;29.82
65013;BME280;51715;39.432;-77.518;2023-03-26T09:30:27;99251.26;;;11.46;30.39
65013;BME280;51715;39.432;-77.518;2023-03-26T09:33:19;99256.52;;;11.34;30.12
65013;BME280;51715;39.432;-77.518;2023-03-26T09:35:54;99264.13;;;10.98;30.82
65013;BME280;51715;39.432;-77.518;2023-03-26T09:38:36;99269.82;;;11.05;30.27
65013;BME280;51715;39.432;-77.518;2023-03-26T09:41:14;99268.93;;;11.20;29.83
65013;BME280;51715;39.432;-77.518;2023-03-26T09:46:06;99280.51;;;10.93;30.02
65013;BME280;51715;39.432;-77.518;2023-03-26T09:48:55;99288.94;;;10.44;30.90
65013;BME280;51715;39.432;-77.518;2023-03-26T09:52:12;99289.79;;;10.90;30.65
65013;BME280;51715;39.432;-77.518;2023-03-26T09:55:12;99299.57;;;9.86;31.13
65013;BME280;51715;39.432;-77.518;2023-03-26T09:58:20;99309.88;;;9.49;31.98
65013;BME280;51715;39.432;-77.518;2023-03-26T10:00:56;99315.28;;;9.35;31.95
65013;BME280;51715;39.432;-77.518;2023-03-26T10:03:37;99319.79;;;9.06;32.39
65013;BME280;51715;39.432;-77.518;2023-03-26T10:06:19;99326.05;;;8.81;32.30
65013;BME280;51715;39.432;-77.518;2023-03-26T10:08:56;99334.80;;;9.19;31.58
65013;BME280;51715;39.432;-77.518;2023-03-26T10:11:36;99337.93;;;9.06;31.00
65013;BME280;51715;39.432;-77.518;2023-03-26T10:14:16;99348.39;;;8.99;30.71
65013;BME280;51715;39.432;-77.518;2023-03-26T10:16:55;99352.87;;;9.76;30.18
65013;BME280;51715;39.432;-77.518;2023-03-26T10:19:41;99356.05;;;10.41;29.90
65013;BME280;51715;39.432;-77.518;2023-03-26T10:22:23;99358.30;;;9.44;28.49
65013;BME280;51715;39.432;-77.518;2023-03-26T10:25:23;99365.07;;;9.69;28.62
65013;BME280;51715;39.432;-77.518;2023-03-26T10:28:22;99368.12;;;9.33;28.76
65013;BME280;51715;39.432;-77.518;2023-03-26T10:31:04;99371.87;;;9.38;28.24
65013;BME280;51715;39.432;-77.518;2023-03-26T10:33:40;99368.62;;;9.73;28.71
65013;BME280;51715;39.432;-77.518;2023-03-26T10:36:26;99382.17;;;9.26;28.53
65013;BME280;51715;39.432;-77.518;2023-03-26T10:39:10;99387.77;;;9.42;27.61
65013;BME280;51715;39.432;-77.518;2023-03-26T10:41:50;99395.39;;;8.93;28.53
65013;BME280;51715;39.432;-77.518;2023-03-26T10:44:39;99402.05;;;8.57;28.02
65013;BME280;51715;39.432;-77.518;2023-03-26T10:47:30;99410.45;;;8.72;28.17
65013;BME280;51715;39.432;-77.518;2023-03-26T10:50:19;99406.58;;;8.86;28.55
65013;BME280;51715;39.432;-77.518;2023-03-26T10:52:53;99410.41;;;8.84;27.84
65013;BME280;51715;39.432;-77.518;2023-03-26T10:55:30;99412.57;;;8.08;28.82
65013;BME280;51715;39.432;-77.518;2023-03-26T10:58:12;99430.57;;;8.77;28.72
65013;BME280;51715;39.432;-77.518;2023-03-26T11:00:46;99436.15;;;7.85;29.30
65013;BME280;51715;39.432;-77.518;2023-03-26T11:03:32;99445.88;;;8.70;28.22
65013;BME280;51715;39.432;-77.518;2023-03-26T11:06:10;99449.64;;;8.99;29.20
65013;BME280;51715;39.432;-77.518;2023-03-26T11:08:48;99454.07;;;8.71;29.52
65013;BME280;51715;39.432;-77.518;2023-03-26T11:11:24;99457.31;;;9.05;28.58
65013;BME280;51715;39.432;-77.518;2023-03-26T11:14:02;99462.63;;;8.83;28.83
65013;BME280;51715;39.432;-77.518;2023-03-26T11:16:40;99467.67;;;9.16;29.59
65013;BME280;51715;39.432;-77.518;2023-03-26T11:19:18;99472.76;;;8.94;29.50
65013;BME280;51715;39.432;-77.518;2023-03-26T11:21:52;99481.48;;;8.49;30.06
65013;BME280;51715;39.432;-77.518;2023-03-26T11:24:39;99485.14;;;8.44;29.44
65013;BME280;51715;39.432;-77.518;2023-03-26T11:27:18;99493.18;;;8.97;29.21
65013;BME280;51715;39.432;-77.518;2023-03-26T11:29:55;99508.96;;;9.63;28.37
65013;BME280;51715;39.432;-77.518;2023-03-26T11:32:36;99507.78;;;9.66;28.05
65013;BME280;51715;39.432;-77.518;2023-03-26T11:35:13;99504.91;;;9.93;28.56
65013;BME280;51715;39.432;-77.518;2023-03-26T11:37:47;99515.92;;;9.85;28.68
65013;BME280;51715;39.432;-77.518;2023-03-26T11:40:22;99519.13;;;9.16;29.71
65013;BME280;51715;39.432;-77.518;2023-03-26T11:42:57;99528.29;;;9.45;28.95
65013;BME280;51715;39.432;-77.518;2023-03-26T11:45:30;99530.82;;;9.86;28.55
65013;BME280;51715;39.432;-77.518;2023-03-26T11:48:04;99535.13;;;9.48;29.82
65013;BME280;51715;39.432;-77.518;2023-03-26T11:50:39;99540.45;;;9.54;28.95
65013;BME280;51715;39.432;-77.518;2023-03-26T11:53:12;99541.21;;;10.09;28.34
65013;BME280;51715;39.432;-77.518;2023-03-26T11:55:46;99541.87;;;10.25;29.00
65013;BME280;51715;39.432;-77.518;2023-03-26T11:58:24;99541.72;;;10.02;28.55
65013;BME280;51715;39.432;-77.518;2023-03-26T12:00:55;99551.74;;;10.02;29.20
65013;BME280;51715;39.432;-77.518;2023-03-26T12:03:23;99555.62;;;10.43;29.16
65013;BME280;51715;39.432;-77.518;2023-03-26T12:05:58;99555.15;;;10.79;28.13
65013;BME280;51715;39.432;-77.518;2023-03-26T12:08:32;99558.90;;;11.14;28.46
65013;BME280;51715;39.432;-77.518;2023-03-26T12:11:04;99563.48;;;11.22;27.83
65013;BME280;51715;39.432;-77.518;2023-03-26T12:13:37;99564.66;;;10.88;27.89
65013;BME280;51715;39.432;-77.518;2023-03-26T12:16:14;99573.37;;;10.10;28.46
65013;BME280;51715;39.432;-77.518;2023-03-26T12:18:44;99575.60;;;11.06;28.30
65013;BME280;51715;39.432;-77.518;2023-03-26T12:21:16;99576.35;;;11.55;28.18
65013;BME280;51715;39.432;-77.518;2023-03-26T12:23:55;99580.87;;;11.34;27.26
65013;BME280;51715;39.432;-77.518;2023-03-26T12:26:36;99577.38;;;11.40;27.80
65013;BME280;51715;39.432;-77.518;2023-03-26T12:29:09;99575.02;;;11.73;28.19
65013;BME280;51715;39.432;-77.518;2023-03-26T12:31:47;99576.54;;;11.84;27.06
65013;BME280;51715;39.432;-77.518;2023-03-26T12:34:17;99573.95;;;11.73;27.12
65013;BME280;51715;39.432;-77.518;2023-03-26T12:36:50;99574.83;;;11.77;27.21
65013;BME280;51715;39.432;-77.518;2023-03-26T12:39:30;99570.51;;;12.13;27.18
65013;BME280;51715;39.432;-77.518;2023-03-26T12:42:01;99563.12;;;12.44;26.93
65013;BME280;51715;39.432;-77.518;2023-03-26T12:44:32;99568.57;;;12.20;26.50
65013;BME280;51715;39.432;-77.518;2023-03-26T12:47:14;99563.33;;;12.49;26.32
65013;BME280;51715;39.432;-77.518;2023-03-26T12:49:45;99569.00;;;11.91;26.83
65013;BME280;51715;39.432;-77.518;2023-03-26T12:52:29;99565.86;;;11.97;27.01
65013;BME280;51715;39.432;-77.518;2023-03-26T12:55:12;99566.60;;;12.39;27.55
65013;BME280;51715;39.432;-77.518;2023-03-26T12:57:52;99561.74;;;12.43;26.40
65013;BME280;51715;39.432;-77.518;2023-03-26T13:00:31;99569.36;;;11.89;27.71
65013;BME280;51715;39.432;-77.518;2023-03-26T13:03:15;99569.77;;;11.97;26.14
65013;BME280;51715;39.432;-77.518;2023-03-26T13:06:02;99578.47;;;11.58;26.57
65013;BME280;51715;39.432;-77.518;2023-03-26T13:08:49;99578.06;;;12.19;26.42
65013;BME280;51715;39.432;-77.518;2023-03-26T13:11:30;99578.85;;;12.80;27.28
65013;BME280;51715;39.432;-77.518;2023-03-26T13:14:19;99584.89;;;12.58;26.96
65013;BME280;51715;39.432;-77.518;2023-03-26T13:16:57;99583.46;;;13.14;26.72
65013;BME280;51715;39.432;-77.518;2023-03-26T13:19:31;99585.24;;;11.83;27.53
65013;BME280;51715;39.432;-77.518;2023-03-26T13:22:13;99587.00;;;11.51;28.58
65013;BME280;51715;39.432;-77.518;2023-03-26T13:24:50;99587.98;;;12.29;28.36
65013;BME280;51715;39.432;-77.518;2023-03-26T13:27:33;99586.57;;;11.39;27.93